RYR54HT EPMO-LGSA
Flight info
| Callsign | RYR54HT |
|---|---|
| Flight time | N/A |
| Altitude | 34000 |
| Route | EVINA M66 BABKO/N0434F350 DCT PARAK DCT RAXAD DCT MAKED UL617 SKP UM749 ATV UP169 MANOK L612 RUSOS |
| Aircraft | B738/M-SDE3FGIJ1LRWYZ/SB1 |
Departure
| Time | 2026-04-26 04:36 |
|---|---|
| Airport | Warsaw Modlin Airport (EPMO) |
Arrival
| Time | N/A |
|---|---|
| Airport | Chania International Airport (LGSA) |
| Time | Latitude | Longitude | Altitude | Speed | Heading |
|---|---|---|---|---|---|
| 2026-04-26 04:08 | 52.44759 | 20.65418 | 337 ft | 0 kts | 206° |
| 2026-04-26 04:29 | 52.44774 | 20.65431 | 337 ft | 3 kts | 206° |
| 2026-04-26 04:29 | 52.44793 | 20.65440 | 337 ft | 3 kts | 163° |
| 2026-04-26 04:29 | 52.44805 | 20.65425 | 333 ft | 3 kts | 96° |
| 2026-04-26 04:29 | 52.44804 | 20.65391 | 337 ft | 3 kts | 81° |
| 2026-04-26 04:30 | 52.44802 | 20.65376 | 337 ft | 1 kts | 81° |
| 2026-04-26 04:31 | 52.44804 | 20.65397 | 337 ft | 5 kts | 80° |
| 2026-04-26 04:32 | 52.44815 | 20.65509 | 336 ft | 15 kts | 81° |
| 2026-04-26 04:32 | 52.44833 | 20.65725 | 337 ft | 22 kts | 82° |
| 2026-04-26 04:32 | 52.44858 | 20.65995 | 337 ft | 25 kts | 81° |
| 2026-04-26 04:32 | 52.44883 | 20.66266 | 335 ft | 23 kts | 82° |
| 2026-04-26 04:33 | 52.44908 | 20.66524 | 333 ft | 22 kts | 81° |
| 2026-04-26 04:33 | 52.44932 | 20.66780 | 337 ft | 24 kts | 81° |
| 2026-04-26 04:33 | 52.44951 | 20.66988 | 333 ft | 10 kts | 81° |
| 2026-04-26 04:33 | 52.44981 | 20.67077 | 333 ft | 9 kts | 13° |
| 2026-04-26 04:34 | 52.45045 | 20.67071 | 333 ft | 9 kts | 352° |
| 2026-04-26 04:34 | 52.45108 | 20.67055 | 333 ft | 9 kts | 351° |
| 2026-04-26 04:34 | 52.45181 | 20.67035 | 336 ft | 13 kts | 349° |
| 2026-04-26 04:34 | 52.45267 | 20.66997 | 337 ft | 7 kts | 349° |
| 2026-04-26 04:35 | 52.45288 | 20.66960 | 337 ft | 5 kts | 262° |
| 2026-04-26 04:35 | 52.45275 | 20.66813 | 336 ft | 38 kts | 261° |
| 2026-04-26 04:35 | 52.45200 | 20.66008 | 338 ft | 104 kts | 261° |
| 2026-04-26 04:35 | 52.45065 | 20.64537 | 375 ft | 154 kts | 263° |
| 2026-04-26 04:36 | 52.44880 | 20.62834 | 1204 ft | 143 kts | 265° |
| 2026-04-26 04:36 | 52.44687 | 20.61197 | 1855 ft | 156 kts | 267° |
| 2026-04-26 04:36 | 52.44050 | 20.59512 | 2125 ft | 204 kts | 222° |
| 2026-04-26 04:36 | 52.42591 | 20.58726 | 2353 ft | 239 kts | 192° |
| 2026-04-26 04:37 | 52.40879 | 20.58411 | 2584 ft | 259 kts | 189° |
| 2026-04-26 04:37 | 52.38985 | 20.58058 | 2837 ft | 281 kts | 190° |
| 2026-04-26 04:37 | 52.37005 | 20.57676 | 3453 ft | 291 kts | 190° |
| 2026-04-26 04:37 | 52.34980 | 20.57273 | 4238 ft | 294 kts | 190° |
| 2026-04-26 04:38 | 52.32936 | 20.56853 | 5080 ft | 297 kts | 190° |
| 2026-04-26 04:38 | 52.30904 | 20.56422 | 5800 ft | 301 kts | 190° |
| 2026-04-26 04:38 | 52.28826 | 20.55972 | 6527 ft | 305 kts | 191° |
| 2026-04-26 04:38 | 52.26730 | 20.55511 | 7264 ft | 307 kts | 191° |
| 2026-04-26 04:39 | 52.24598 | 20.55038 | 8032 ft | 308 kts | 192° |
| 2026-04-26 04:39 | 52.22470 | 20.54563 | 8783 ft | 311 kts | 192° |
| 2026-04-26 04:39 | 52.20318 | 20.54081 | 9526 ft | 313 kts | 193° |
| 2026-04-26 04:39 | 52.18159 | 20.53596 | 10236 ft | 314 kts | 193° |
| 2026-04-26 04:40 | 52.15949 | 20.53094 | 10570 ft | 331 kts | 193° |
| 2026-04-26 04:40 | 52.13608 | 20.52557 | 10877 ft | 346 kts | 193° |
| 2026-04-26 04:40 | 52.11204 | 20.52014 | 11510 ft | 351 kts | 193° |
| 2026-04-26 04:40 | 52.08775 | 20.51471 | 12244 ft | 353 kts | 193° |
| 2026-04-26 04:41 | 52.06339 | 20.50929 | 13001 ft | 354 kts | 193° |
| 2026-04-26 04:41 | 52.03889 | 20.50382 | 13764 ft | 357 kts | 194° |
| 2026-04-26 04:41 | 52.01408 | 20.49827 | 14371 ft | 364 kts | 194° |
| 2026-04-26 04:41 | 51.98876 | 20.49257 | 14946 ft | 370 kts | 194° |
| 2026-04-26 04:42 | 51.96315 | 20.48685 | 15664 ft | 373 kts | 194° |
| 2026-04-26 04:42 | 51.93733 | 20.48109 | 16315 ft | 376 kts | 195° |
| 2026-04-26 04:42 | 51.91112 | 20.47523 | 16833 ft | 384 kts | 196° |
| 2026-04-26 04:42 | 51.88440 | 20.46924 | 17433 ft | 390 kts | 196° |
| 2026-04-26 04:43 | 51.85751 | 20.46325 | 18065 ft | 395 kts | 196° |
| 2026-04-26 04:43 | 51.83011 | 20.45716 | 18587 ft | 400 kts | 197° |
| 2026-04-26 04:43 | 51.80227 | 20.45097 | 19092 ft | 405 kts | 197° |
| 2026-04-26 04:43 | 51.77447 | 20.44481 | 19607 ft | 410 kts | 197° |
| 2026-04-26 04:44 | 51.74596 | 20.43849 | 20113 ft | 415 kts | 198° |
| 2026-04-26 04:44 | 51.71717 | 20.43213 | 20610 ft | 420 kts | 198° |
| 2026-04-26 04:44 | 51.68803 | 20.42569 | 21111 ft | 425 kts | 198° |
| 2026-04-26 04:44 | 51.65856 | 20.41919 | 21596 ft | 430 kts | 198° |
| 2026-04-26 04:45 | 51.62896 | 20.41267 | 22078 ft | 434 kts | 198° |
| 2026-04-26 04:45 | 51.59877 | 20.40603 | 22543 ft | 439 kts | 199° |
| 2026-04-26 04:45 | 51.56832 | 20.39935 | 23016 ft | 444 kts | 199° |
| 2026-04-26 04:45 | 51.53755 | 20.39261 | 23496 ft | 448 kts | 199° |
| 2026-04-26 04:46 | 51.50641 | 20.38580 | 23881 ft | 453 kts | 199° |
| 2026-04-26 04:46 | 51.47505 | 20.37897 | 24263 ft | 457 kts | 199° |
| 2026-04-26 04:46 | 51.44346 | 20.37208 | 24536 ft | 461 kts | 200° |
| 2026-04-26 04:46 | 51.41142 | 20.36506 | 24838 ft | 467 kts | 200° |
| 2026-04-26 04:47 | 51.37953 | 20.35658 | 25212 ft | 460 kts | 207° |
| 2026-04-26 04:47 | 51.34918 | 20.34199 | 25628 ft | 453 kts | 212° |
| 2026-04-26 04:47 | 51.31927 | 20.32598 | 26033 ft | 454 kts | 213° |
| 2026-04-26 04:47 | 51.28942 | 20.30976 | 26402 ft | 458 kts | 212° |
| 2026-04-26 04:48 | 51.22864 | 20.27727 | 27023 ft | 465 kts | 212° |
| 2026-04-26 04:48 | 51.19796 | 20.26127 | 27550 ft | 465 kts | 212° |
| 2026-04-26 04:48 | 51.17715 | 20.25052 | 27872 ft | 465 kts | 212° |
| 2026-04-26 04:49 | 51.14614 | 20.23452 | 28216 ft | 469 kts | 212° |
| 2026-04-26 04:49 | 51.10472 | 20.21315 | 28616 ft | 475 kts | 211° |
| 2026-04-26 04:49 | 51.08345 | 20.20220 | 28843 ft | 477 kts | 211° |
| 2026-04-26 04:49 | 51.05223 | 20.18617 | 29200 ft | 480 kts | 211° |
| 2026-04-26 04:50 | 51.02035 | 20.16984 | 29556 ft | 482 kts | 211° |
| 2026-04-26 04:50 | 50.98849 | 20.15352 | 29777 ft | 484 kts | 211° |
| 2026-04-26 04:50 | 50.95626 | 20.13705 | 30170 ft | 485 kts | 211° |
| 2026-04-26 04:50 | 50.92438 | 20.12077 | 30515 ft | 486 kts | 211° |
| 2026-04-26 04:51 | 50.89225 | 20.10440 | 30924 ft | 484 kts | 211° |
| 2026-04-26 04:51 | 50.86061 | 20.08830 | 31347 ft | 482 kts | 211° |
| 2026-04-26 04:51 | 50.82878 | 20.07212 | 31741 ft | 481 kts | 211° |
| 2026-04-26 04:51 | 50.79702 | 20.05598 | 32107 ft | 481 kts | 211° |
| 2026-04-26 04:52 | 50.76517 | 20.03982 | 32403 ft | 480 kts | 210° |
| 2026-04-26 04:52 | 50.73353 | 20.02383 | 32865 ft | 477 kts | 210° |
| 2026-04-26 04:52 | 50.70197 | 20.00791 | 33308 ft | 474 kts | 210° |
| 2026-04-26 04:52 | 50.67070 | 19.99216 | 33800 ft | 470 kts | 211° |
| 2026-04-26 04:53 | 50.63951 | 19.97643 | 34027 ft | 472 kts | 211° |
| 2026-04-26 04:53 | 50.60814 | 19.96050 | 34018 ft | 477 kts | 211° |
| 2026-04-26 04:53 | 50.54492 | 19.92863 | 33944 ft | 475 kts | 210° |
| 2026-04-26 04:54 | 50.48265 | 19.89757 | 34021 ft | 468 kts | 210° |
| 2026-04-26 04:54 | 50.42038 | 19.86636 | 34031 ft | 470 kts | 210° |
| 2026-04-26 04:55 | 50.35793 | 19.83514 | 34041 ft | 472 kts | 210° |
| 2026-04-26 04:55 | 50.29519 | 19.80392 | 34031 ft | 472 kts | 209° |
| 2026-04-26 04:56 | 50.23251 | 19.77285 | 34039 ft | 473 kts | 209° |
| 2026-04-26 04:56 | 50.16940 | 19.74164 | 34049 ft | 474 kts | 209° |
| 2026-04-26 04:57 | 50.10661 | 19.71068 | 33986 ft | 473 kts | 209° |
| 2026-04-26 04:57 | 50.04414 | 19.67998 | 34033 ft | 471 kts | 208° |
| 2026-04-26 04:58 | 49.98168 | 19.64934 | 34050 ft | 470 kts | 208° |
| 2026-04-26 04:58 | 49.91956 | 19.61894 | 34058 ft | 470 kts | 208° |
| 2026-04-26 04:59 | 49.85781 | 19.58880 | 34021 ft | 468 kts | 207° |
| 2026-04-26 04:59 | 49.79598 | 19.55871 | 34045 ft | 468 kts | 207° |
| 2026-04-26 05:00 | 49.73385 | 19.52854 | 34053 ft | 467 kts | 207° |
| 2026-04-26 05:00 | 49.67183 | 19.49850 | 34017 ft | 467 kts | 207° |
| 2026-04-26 05:01 | 49.60826 | 19.47540 | 34071 ft | 479 kts | 192° |
| 2026-04-26 05:01 | 49.57455 | 19.47465 | 34063 ft | 489 kts | 181° |
| 2026-04-26 05:01 | 49.54072 | 19.48058 | 34075 ft | 492 kts | 178° |
| 2026-04-26 05:02 | 49.47291 | 19.49490 | 34069 ft | 493 kts | 178° |
| 2026-04-26 05:02 | 49.40446 | 19.50919 | 34056 ft | 493 kts | 178° |
| 2026-04-26 05:03 | 49.33781 | 19.52235 | 34071 ft | 494 kts | 179° |
| 2026-04-26 05:03 | 49.26986 | 19.53535 | 34084 ft | 494 kts | 179° |
| 2026-04-26 05:04 | 49.20354 | 19.54794 | 34045 ft | 496 kts | 179° |
| 2026-04-26 05:04 | 49.13617 | 19.56075 | 34047 ft | 494 kts | 178° |
| 2026-04-26 05:05 | 49.06794 | 19.57371 | 34039 ft | 493 kts | 178° |
| 2026-04-26 05:05 | 48.99989 | 19.58660 | 34023 ft | 492 kts | 178° |
| 2026-04-26 05:06 | 48.93194 | 19.59943 | 33984 ft | 490 kts | 178° |
| 2026-04-26 05:06 | 48.86444 | 19.61216 | 33998 ft | 488 kts | 178° |
| 2026-04-26 05:07 | 48.79722 | 19.62479 | 33964 ft | 485 kts | 178° |
| 2026-04-26 05:07 | 48.73049 | 19.63728 | 33977 ft | 483 kts | 178° |
| 2026-04-26 05:08 | 48.66396 | 19.64970 | 33959 ft | 482 kts | 177° |
| 2026-04-26 05:08 | 48.59755 | 19.66207 | 33934 ft | 480 kts | 177° |
| 2026-04-26 05:09 | 48.53129 | 19.67439 | 33936 ft | 478 kts | 177° |
| 2026-04-26 05:09 | 48.46542 | 19.68658 | 33922 ft | 479 kts | 176° |
| 2026-04-26 05:10 | 48.39956 | 19.69874 | 33928 ft | 480 kts | 176° |
| 2026-04-26 05:10 | 48.33320 | 19.71097 | 33983 ft | 481 kts | 177° |
| 2026-04-26 05:11 | 48.26698 | 19.72314 | 33954 ft | 483 kts | 178° |
| 2026-04-26 05:11 | 48.19995 | 19.73544 | 33938 ft | 483 kts | 177° |
| 2026-04-26 05:12 | 48.13394 | 19.74752 | 33939 ft | 483 kts | 177° |
| 2026-04-26 05:12 | 48.06686 | 19.75976 | 33951 ft | 483 kts | 177° |
| 2026-04-26 05:13 | 48.00054 | 19.77183 | 33918 ft | 481 kts | 176° |
| 2026-04-26 05:13 | 47.93425 | 19.78387 | 33942 ft | 479 kts | 176° |
| 2026-04-26 05:14 | 47.86818 | 19.79584 | 33951 ft | 478 kts | 176° |
| 2026-04-26 05:14 | 47.80263 | 19.80767 | 33943 ft | 477 kts | 177° |
| 2026-04-26 05:15 | 47.73674 | 19.81953 | 33947 ft | 475 kts | 176° |
| 2026-04-26 05:15 | 47.67115 | 19.83131 | 33955 ft | 474 kts | 176° |
| 2026-04-26 05:16 | 47.60562 | 19.84306 | 33960 ft | 474 kts | 176° |
| 2026-04-26 05:16 | 47.54013 | 19.85476 | 33949 ft | 473 kts | 176° |
| 2026-04-26 05:17 | 47.47494 | 19.86638 | 33958 ft | 472 kts | 176° |
| 2026-04-26 05:17 | 47.40979 | 19.87797 | 33965 ft | 471 kts | 176° |
| 2026-04-26 05:18 | 47.34490 | 19.88948 | 33982 ft | 469 kts | 176° |
| 2026-04-26 05:18 | 47.28015 | 19.90094 | 33975 ft | 467 kts | 176° |
| 2026-04-26 05:19 | 47.21587 | 19.91229 | 33968 ft | 466 kts | 176° |
| 2026-04-26 05:19 | 47.15148 | 19.92363 | 33972 ft | 465 kts | 176° |
| 2026-04-26 05:20 | 47.08689 | 19.93497 | 33988 ft | 464 kts | 176° |
| 2026-04-26 05:20 | 47.02319 | 19.94613 | 33991 ft | 463 kts | 176° |
| 2026-04-26 05:21 | 46.95882 | 19.95738 | 33994 ft | 464 kts | 176° |
| 2026-04-26 05:21 | 46.89472 | 19.96856 | 33994 ft | 464 kts | 176° |
| 2026-04-26 05:22 | 46.84146 | 19.97783 | 34001 ft | 464 kts | 176° |
| 2026-04-26 05:22 | 46.77732 | 19.98897 | 33990 ft | 464 kts | 176° |
| 2026-04-26 05:23 | 46.71323 | 20.00007 | 33992 ft | 463 kts | 176° |
| 2026-04-26 05:23 | 46.64946 | 20.01109 | 33971 ft | 462 kts | 175° |
| 2026-04-26 05:24 | 46.58588 | 20.02206 | 33985 ft | 459 kts | 175° |
| 2026-04-26 05:24 | 46.52251 | 20.03296 | 34000 ft | 457 kts | 175° |
| 2026-04-26 05:25 | 46.45965 | 20.04374 | 33995 ft | 455 kts | 175° |
| 2026-04-26 05:25 | 46.39683 | 20.05450 | 34002 ft | 453 kts | 175° |
| 2026-04-26 05:26 | 46.33424 | 20.06518 | 34009 ft | 453 kts | 175° |
| 2026-04-26 05:26 | 46.27128 | 20.07592 | 33995 ft | 452 kts | 175° |
| 2026-04-26 05:27 | 46.20888 | 20.08653 | 33993 ft | 453 kts | 175° |
| 2026-04-26 05:27 | 46.14688 | 20.10294 | 33996 ft | 456 kts | 161° |
| 2026-04-26 05:28 | 46.08856 | 20.13739 | 34003 ft | 458 kts | 158° |
| 2026-04-26 05:28 | 46.02953 | 20.17366 | 34012 ft | 459 kts | 158° |
| 2026-04-26 05:29 | 45.97051 | 20.20933 | 34007 ft | 461 kts | 158° |
| 2026-04-26 05:29 | 45.91127 | 20.24463 | 34009 ft | 461 kts | 158° |
| 2026-04-26 05:30 | 45.85182 | 20.27981 | 34009 ft | 462 kts | 159° |
| 2026-04-26 05:30 | 45.79254 | 20.31480 | 34010 ft | 463 kts | 159° |
| 2026-04-26 05:31 | 45.73300 | 20.34988 | 34006 ft | 462 kts | 158° |
| 2026-04-26 05:31 | 45.67375 | 20.38472 | 34018 ft | 461 kts | 159° |
| 2026-04-26 05:32 | 45.61460 | 20.41942 | 34017 ft | 460 kts | 159° |
| 2026-04-26 05:32 | 45.55553 | 20.45400 | 34011 ft | 458 kts | 159° |
| 2026-04-26 05:33 | 45.49674 | 20.48833 | 34002 ft | 456 kts | 159° |
| 2026-04-26 05:33 | 45.43811 | 20.52249 | 34011 ft | 454 kts | 159° |
| 2026-04-26 05:34 | 45.37961 | 20.55650 | 34020 ft | 453 kts | 159° |
| 2026-04-26 05:34 | 45.32127 | 20.59035 | 34025 ft | 453 kts | 159° |
| 2026-04-26 05:35 | 45.26309 | 20.62402 | 34011 ft | 452 kts | 159° |
| 2026-04-26 05:35 | 45.20455 | 20.65782 | 34085 ft | 458 kts | 159° |
| 2026-04-26 05:36 | 45.17491 | 20.67490 | 34232 ft | 462 kts | 159° |
| 2026-04-26 05:36 | 45.14511 | 20.69206 | 34513 ft | 461 kts | 159° |
| 2026-04-26 05:36 | 45.11563 | 20.70902 | 34843 ft | 459 kts | 160° |
| 2026-04-26 05:36 | 45.08600 | 20.72605 | 35031 ft | 461 kts | 160° |
| 2026-04-26 05:37 | 45.02625 | 20.76032 | 35010 ft | 463 kts | 161° |
| 2026-04-26 05:37 | 44.96698 | 20.79428 | 35010 ft | 456 kts | 161° |
| 2026-04-26 05:38 | 44.90845 | 20.82769 | 35026 ft | 456 kts | 161° |
| 2026-04-26 05:38 | 44.84955 | 20.86123 | 35021 ft | 457 kts | 161° |
| 2026-04-26 05:39 | 44.79017 | 20.89499 | 35021 ft | 457 kts | 161° |
| 2026-04-26 05:39 | 44.73110 | 20.92850 | 35024 ft | 458 kts | 162° |
| 2026-04-26 05:40 | 44.67201 | 20.96195 | 35022 ft | 458 kts | 162° |
| 2026-04-26 05:40 | 44.61283 | 20.99537 | 35024 ft | 458 kts | 162° |
| 2026-04-26 05:41 | 44.55387 | 21.02860 | 35015 ft | 458 kts | 162° |
| 2026-04-26 05:41 | 44.49489 | 21.06176 | 35025 ft | 458 kts | 163° |
| 2026-04-26 05:42 | 44.43577 | 21.09493 | 35031 ft | 458 kts | 163° |
| 2026-04-26 05:42 | 44.37660 | 21.12805 | 35026 ft | 458 kts | 163° |
| 2026-04-26 05:43 | 44.31750 | 21.16107 | 35018 ft | 457 kts | 163° |
| 2026-04-26 05:43 | 44.25846 | 21.19398 | 35025 ft | 457 kts | 163° |
| 2026-04-26 05:44 | 44.19939 | 21.22683 | 35026 ft | 457 kts | 163° |
| 2026-04-26 05:44 | 44.14047 | 21.25953 | 35008 ft | 457 kts | 163° |
| 2026-04-26 05:45 | 44.08145 | 21.29223 | 35023 ft | 457 kts | 163° |
| 2026-04-26 05:45 | 44.02233 | 21.32490 | 35036 ft | 457 kts | 163° |
| 2026-04-26 05:46 | 43.96333 | 21.35742 | 35034 ft | 458 kts | 163° |
| 2026-04-26 05:46 | 43.90414 | 21.38998 | 35020 ft | 458 kts | 163° |
| 2026-04-26 05:47 | 43.84447 | 21.42274 | 35034 ft | 459 kts | 163° |
| 2026-04-26 05:47 | 43.78511 | 21.45527 | 35034 ft | 459 kts | 163° |
| 2026-04-26 05:48 | 43.72561 | 21.48779 | 35032 ft | 460 kts | 163° |
| 2026-04-26 05:48 | 43.66622 | 21.52019 | 35025 ft | 460 kts | 163° |
| 2026-04-26 05:49 | 43.57708 | 21.56870 | 35037 ft | 459 kts | 163° |
| 2026-04-26 05:50 | 43.51771 | 21.60092 | 35046 ft | 458 kts | 163° |
| 2026-04-26 05:50 | 43.45846 | 21.63300 | 35048 ft | 458 kts | 163° |
| 2026-04-26 05:51 | 43.39921 | 21.66502 | 35073 ft | 457 kts | 163° |
| 2026-04-26 05:51 | 43.34013 | 21.69688 | 35079 ft | 456 kts | 163° |
| 2026-04-26 05:52 | 43.28112 | 21.72863 | 35078 ft | 455 kts | 163° |
| 2026-04-26 05:52 | 43.22226 | 21.76023 | 35073 ft | 455 kts | 163° |
| 2026-04-26 05:53 | 43.16340 | 21.79177 | 35067 ft | 455 kts | 163° |
| 2026-04-26 05:53 | 43.10434 | 21.82335 | 35056 ft | 456 kts | 163° |
| 2026-04-26 05:54 | 43.04513 | 21.85494 | 35038 ft | 457 kts | 163° |
| 2026-04-26 05:54 | 42.98589 | 21.88649 | 35040 ft | 457 kts | 162° |
| 2026-04-26 05:55 | 42.92658 | 21.91801 | 35044 ft | 457 kts | 162° |
| 2026-04-26 05:55 | 42.86751 | 21.94933 | 35048 ft | 458 kts | 162° |
| 2026-04-26 05:56 | 42.80807 | 21.98082 | 35037 ft | 459 kts | 162° |
| 2026-04-26 05:56 | 42.74861 | 22.01221 | 35040 ft | 458 kts | 162° |
| 2026-04-26 05:57 | 42.69882 | 22.03845 | 35051 ft | 458 kts | 162° |
| 2026-04-26 05:57 | 42.63937 | 22.06973 | 35044 ft | 458 kts | 162° |
| 2026-04-26 05:58 | 42.58002 | 22.10089 | 35045 ft | 459 kts | 162° |
| 2026-04-26 05:58 | 42.52040 | 22.13213 | 35043 ft | 459 kts | 162° |
| 2026-04-26 05:59 | 42.46082 | 22.16330 | 35048 ft | 459 kts | 162° |
| 2026-04-26 05:59 | 42.40128 | 22.19437 | 35034 ft | 458 kts | 162° |
| 2026-04-26 06:00 | 42.34186 | 22.22534 | 35045 ft | 457 kts | 162° |
| 2026-04-26 06:00 | 42.28148 | 22.25075 | 35049 ft | 451 kts | 173° |
| 2026-04-26 06:01 | 42.21964 | 22.26490 | 35050 ft | 450 kts | 174° |
| 2026-04-26 06:01 | 42.15782 | 22.27863 | 35042 ft | 450 kts | 174° |
| 2026-04-26 06:02 | 42.09619 | 22.29278 | 35034 ft | 450 kts | 173° |
| 2026-04-26 06:02 | 42.03403 | 22.30733 | 35052 ft | 451 kts | 173° |
| 2026-04-26 06:03 | 41.97221 | 22.32184 | 35050 ft | 451 kts | 173° |
| 2026-04-26 06:03 | 41.91033 | 22.33633 | 35056 ft | 451 kts | 173° |
| 2026-04-26 06:04 | 41.84843 | 22.35079 | 35057 ft | 451 kts | 173° |
| 2026-04-26 06:04 | 41.78666 | 22.36518 | 35041 ft | 452 kts | 173° |
| 2026-04-26 06:05 | 41.72463 | 22.37960 | 35046 ft | 452 kts | 173° |
| 2026-04-26 06:05 | 41.66257 | 22.39401 | 35052 ft | 452 kts | 173° |
| 2026-04-26 06:06 | 41.60063 | 22.40835 | 35057 ft | 452 kts | 173° |
| 2026-04-26 06:06 | 41.53865 | 22.42268 | 35055 ft | 452 kts | 172° |
| 2026-04-26 06:07 | 41.47674 | 22.43697 | 35059 ft | 452 kts | 172° |
| 2026-04-26 06:07 | 41.41471 | 22.45125 | 35054 ft | 453 kts | 173° |
| 2026-04-26 06:08 | 41.35260 | 22.46552 | 35033 ft | 453 kts | 172° |
| 2026-04-26 06:08 | 41.29069 | 22.47973 | 35051 ft | 453 kts | 172° |
| 2026-04-26 06:09 | 41.22864 | 22.49394 | 35049 ft | 453 kts | 172° |
| 2026-04-26 06:09 | 41.16653 | 22.50814 | 35044 ft | 454 kts | 172° |
| 2026-04-26 06:10 | 41.10611 | 22.53149 | 35042 ft | 456 kts | 154° |
| 2026-04-26 06:10 | 41.05039 | 22.57132 | 35049 ft | 456 kts | 152° |
| 2026-04-26 06:11 | 40.99484 | 22.61184 | 35052 ft | 457 kts | 152° |
| 2026-04-26 06:11 | 40.93896 | 22.65192 | 35046 ft | 457 kts | 152° |
| 2026-04-26 06:12 | 40.88298 | 22.69163 | 35046 ft | 457 kts | 152° |
| 2026-04-26 06:12 | 40.82690 | 22.73125 | 35052 ft | 457 kts | 152° |
| 2026-04-26 06:13 | 40.77082 | 22.77080 | 35051 ft | 457 kts | 152° |
| 2026-04-26 06:13 | 40.71436 | 22.81057 | 35049 ft | 457 kts | 152° |
| 2026-04-26 06:14 | 40.65827 | 22.85000 | 35046 ft | 457 kts | 152° |
| 2026-04-26 06:14 | 40.60262 | 22.88906 | 35048 ft | 456 kts | 152° |
| 2026-04-26 06:15 | 40.54618 | 22.92860 | 35046 ft | 456 kts | 152° |
| 2026-04-26 06:15 | 40.49027 | 22.96769 | 35051 ft | 455 kts | 152° |
| 2026-04-26 06:16 | 40.43351 | 23.00450 | 35046 ft | 455 kts | 158° |
| 2026-04-26 06:16 | 40.37419 | 23.03359 | 35046 ft | 455 kts | 160° |
| 2026-04-26 06:17 | 40.31464 | 23.06207 | 35048 ft | 455 kts | 160° |
| 2026-04-26 06:17 | 40.25542 | 23.09121 | 35041 ft | 455 kts | 159° |
| 2026-04-26 06:18 | 40.19628 | 23.12058 | 35039 ft | 455 kts | 158° |
| 2026-04-26 06:18 | 40.13710 | 23.14992 | 35033 ft | 455 kts | 158° |
| 2026-04-26 06:19 | 40.07784 | 23.17918 | 35036 ft | 455 kts | 158° |
| 2026-04-26 06:19 | 40.01845 | 23.20844 | 35032 ft | 456 kts | 158° |
| 2026-04-26 06:20 | 39.95912 | 23.23765 | 35031 ft | 456 kts | 158° |
| 2026-04-26 06:20 | 39.89967 | 23.26686 | 35030 ft | 457 kts | 158° |
| 2026-04-26 06:21 | 39.84019 | 23.29602 | 35030 ft | 457 kts | 158° |
| 2026-04-26 06:21 | 39.78070 | 23.32516 | 35030 ft | 457 kts | 158° |
| 2026-04-26 06:22 | 39.72120 | 23.35424 | 35031 ft | 457 kts | 158° |
| 2026-04-26 06:22 | 39.66168 | 23.38323 | 35029 ft | 457 kts | 158° |
| 2026-04-26 06:23 | 39.60220 | 23.41214 | 35030 ft | 456 kts | 158° |
| 2026-04-26 06:23 | 39.54274 | 23.44101 | 35036 ft | 456 kts | 157° |
| 2026-04-26 06:24 | 39.48325 | 23.46985 | 35035 ft | 456 kts | 157° |
| 2026-04-26 06:24 | 39.42388 | 23.49858 | 35032 ft | 456 kts | 157° |
| 2026-04-26 06:25 | 39.36453 | 23.52731 | 35028 ft | 455 kts | 157° |
| 2026-04-26 06:25 | 39.30535 | 23.55596 | 35026 ft | 455 kts | 157° |
| 2026-04-26 06:26 | 39.24607 | 23.58452 | 35021 ft | 455 kts | 157° |
| 2026-04-26 06:26 | 39.18657 | 23.61252 | 35024 ft | 456 kts | 161° |
| 2026-04-26 06:27 | 39.12384 | 23.62590 | 35034 ft | 458 kts | 173° |
| 2026-04-26 06:27 | 39.06035 | 23.63406 | 35027 ft | 459 kts | 172° |
| 2026-04-26 06:28 | 38.99640 | 23.64316 | 35034 ft | 459 kts | 171° |
| 2026-04-26 06:28 | 38.93291 | 23.65260 | 35039 ft | 459 kts | 171° |
| 2026-04-26 06:29 | 38.86937 | 23.66197 | 35054 ft | 460 kts | 171° |
| 2026-04-26 06:29 | 38.80597 | 23.67128 | 35053 ft | 460 kts | 171° |
| 2026-04-26 06:30 | 38.74250 | 23.68059 | 35059 ft | 461 kts | 171° |
| 2026-04-26 06:30 | 38.68956 | 23.68835 | 35071 ft | 461 kts | 171° |
| 2026-04-26 06:31 | 38.62591 | 23.69766 | 35054 ft | 462 kts | 171° |
| 2026-04-26 06:31 | 38.56204 | 23.70698 | 35067 ft | 462 kts | 171° |
| 2026-04-26 06:32 | 38.49814 | 23.71630 | 35060 ft | 462 kts | 171° |
| 2026-04-26 06:32 | 38.43434 | 23.72558 | 35062 ft | 462 kts | 171° |
| 2026-04-26 06:33 | 38.37054 | 23.73485 | 35067 ft | 461 kts | 171° |
| 2026-04-26 06:33 | 38.30673 | 23.74411 | 35075 ft | 461 kts | 171° |
| 2026-04-26 06:34 | 38.24300 | 23.75334 | 35079 ft | 461 kts | 171° |
| 2026-04-26 06:34 | 38.17918 | 23.76256 | 35033 ft | 462 kts | 171° |
| 2026-04-26 06:35 | 38.11537 | 23.77178 | 35025 ft | 461 kts | 171° |
| 2026-04-26 06:35 | 38.05171 | 23.78098 | 35040 ft | 461 kts | 170° |
| 2026-04-26 06:36 | 37.98818 | 23.79016 | 35037 ft | 461 kts | 170° |
| 2026-04-26 06:36 | 37.92450 | 23.79934 | 35056 ft | 461 kts | 170° |
| 2026-04-26 06:37 | 37.86098 | 23.80864 | 35040 ft | 450 kts | 169° |
| 2026-04-26 06:37 | 37.83022 | 23.81352 | 35023 ft | 439 kts | 169° |
| 2026-04-26 06:37 | 37.80045 | 23.81834 | 35026 ft | 425 kts | 169° |
| 2026-04-26 06:37 | 37.77145 | 23.82307 | 35023 ft | 413 kts | 169° |
| 2026-04-26 06:38 | 37.74337 | 23.82764 | 35029 ft | 400 kts | 168° |
| 2026-04-26 06:38 | 37.68830 | 23.83664 | 35059 ft | 406 kts | 168° |
| 2026-04-26 06:39 | 37.63122 | 23.84595 | 35056 ft | 420 kts | 169° |
| 2026-04-26 06:39 | 37.57285 | 23.85533 | 35052 ft | 423 kts | 169° |
| 2026-04-26 06:40 | 37.51498 | 23.86453 | 35030 ft | 414 kts | 169° |
| 2026-04-26 06:40 | 37.45787 | 23.87364 | 35044 ft | 415 kts | 168° |
| 2026-04-26 06:41 | 37.40038 | 23.88283 | 35037 ft | 417 kts | 169° |
| 2026-04-26 06:41 | 37.34259 | 23.89205 | 35030 ft | 420 kts | 169° |
| 2026-04-26 06:42 | 37.28450 | 23.90129 | 35031 ft | 421 kts | 169° |
| 2026-04-26 06:42 | 37.22630 | 23.91052 | 35018 ft | 422 kts | 169° |
| 2026-04-26 06:43 | 37.16813 | 23.91974 | 35013 ft | 420 kts | 169° |
| 2026-04-26 06:43 | 37.11022 | 23.92889 | 35009 ft | 418 kts | 169° |
| 2026-04-26 06:44 | 37.05266 | 23.93799 | 35013 ft | 415 kts | 169° |
| 2026-04-26 06:44 | 36.99546 | 23.94702 | 35010 ft | 413 kts | 169° |
| 2026-04-26 06:45 | 36.93842 | 23.95601 | 35012 ft | 412 kts | 169° |
| 2026-04-26 06:45 | 36.88148 | 23.96497 | 35016 ft | 412 kts | 169° |
| 2026-04-26 06:46 | 36.82449 | 23.97393 | 35023 ft | 413 kts | 169° |
| 2026-04-26 06:46 | 36.76732 | 23.98291 | 35017 ft | 414 kts | 169° |
| 2026-04-26 06:47 | 36.71005 | 23.99188 | 35013 ft | 416 kts | 169° |
| 2026-04-26 06:47 | 36.65274 | 24.00084 | 35015 ft | 416 kts | 169° |
| 2026-04-26 06:48 | 36.59524 | 24.00982 | 35021 ft | 417 kts | 170° |
| 2026-04-26 06:48 | 36.53745 | 24.01883 | 35012 ft | 418 kts | 170° |
| 2026-04-26 06:49 | 36.47980 | 24.02781 | 35011 ft | 417 kts | 170° |
| 2026-04-26 06:49 | 36.42282 | 24.03945 | 34980 ft | 410 kts | 154° |
| 2026-04-26 06:49 | 36.39835 | 24.05636 | 35024 ft | 398 kts | 136° |
| 2026-04-26 06:50 | 36.37902 | 24.08033 | 35023 ft | 389 kts | 122° |
| 2026-04-26 06:50 | 36.34713 | 24.13435 | 35005 ft | 388 kts | 122° |
| 2026-04-26 06:51 | 36.31537 | 24.18842 | 35007 ft | 390 kts | 122° |
| 2026-04-26 06:51 | 36.26676 | 24.26955 | 35007 ft | 393 kts | 122° |
| 2026-04-26 06:52 | 36.23386 | 24.32409 | 35012 ft | 395 kts | 122° |
| 2026-04-26 06:52 | 36.20069 | 24.37900 | 35007 ft | 396 kts | 123° |
| 2026-04-26 06:53 | 36.16797 | 24.43326 | 35009 ft | 393 kts | 123° |
| 2026-04-26 06:53 | 36.13540 | 24.48748 | 35006 ft | 393 kts | 123° |
| 2026-04-26 06:54 | 36.10275 | 24.54191 | 35005 ft | 394 kts | 123° |
| 2026-04-26 06:54 | 36.07016 | 24.59625 | 35004 ft | 395 kts | 123° |
| 2026-04-26 06:55 | 36.03742 | 24.65086 | 35004 ft | 396 kts | 123° |
| 2026-04-26 06:55 | 36.00478 | 24.70527 | 35003 ft | 396 kts | 123° |
| 2026-04-26 06:56 | 35.97205 | 24.76014 | 34993 ft | 396 kts | 123° |
| 2026-04-26 06:56 | 35.93951 | 24.81503 | 34996 ft | 396 kts | 123° |
| 2026-04-26 06:57 | 35.90702 | 24.86990 | 34995 ft | 396 kts | 123° |
| 2026-04-26 06:57 | 35.87443 | 24.92493 | 34994 ft | 397 kts | 123° |
| 2026-04-26 06:58 | 35.84185 | 24.97991 | 34995 ft | 397 kts | 123° |
| 2026-04-26 06:58 | 35.80931 | 25.03488 | 35000 ft | 397 kts | 123° |
| 2026-04-26 06:59 | 35.77692 | 25.09005 | 34996 ft | 398 kts | 123° |
| 2026-04-26 06:59 | 35.74460 | 25.14531 | 34986 ft | 398 kts | 123° |
| 2026-04-26 07:00 | 35.71227 | 25.20061 | 34985 ft | 398 kts | 122° |
| 2026-04-26 07:00 | 35.67992 | 25.25588 | 34994 ft | 398 kts | 123° |
| 2026-04-26 07:01 | 35.64755 | 25.31118 | 34979 ft | 398 kts | 123° |
| 2026-04-26 07:01 | 35.61520 | 25.36662 | 34980 ft | 399 kts | 123° |
| 2026-04-26 07:02 | 35.58307 | 25.42218 | 34973 ft | 399 kts | 123° |
| 2026-04-26 07:02 | 35.55096 | 25.47794 | 34975 ft | 400 kts | 123° |
| 2026-04-26 07:03 | 35.51879 | 25.53384 | 34961 ft | 400 kts | 123° |
| 2026-04-26 07:03 | 35.48669 | 25.58959 | 34964 ft | 400 kts | 123° |
| 2026-04-26 07:04 | 35.45466 | 25.64522 | 34982 ft | 399 kts | 122° |
| 2026-04-26 07:04 | 35.42800 | 25.69146 | 34975 ft | 399 kts | 122° |
| 2026-04-26 07:05 | 35.39604 | 25.74715 | 34959 ft | 399 kts | 122° |
| 2026-04-26 07:05 | 35.36406 | 25.80280 | 34957 ft | 399 kts | 122° |
| 2026-04-26 07:06 | 35.33205 | 25.85840 | 34964 ft | 399 kts | 123° |
| 2026-04-26 07:06 | 35.29988 | 25.91442 | 34956 ft | 399 kts | 122° |
| 2026-04-26 07:07 | 35.26783 | 25.97004 | 34961 ft | 400 kts | 123° |
| 2026-04-26 07:07 | 35.23611 | 26.02605 | 34960 ft | 401 kts | 123° |
| 2026-04-26 07:08 | 35.20442 | 26.08244 | 34960 ft | 404 kts | 122° |
| 2026-04-26 07:08 | 35.17238 | 26.13949 | 34948 ft | 409 kts | 123° |
| 2026-04-26 07:09 | 35.14017 | 26.19707 | 34936 ft | 411 kts | 122° |
| 2026-04-26 07:09 | 35.10788 | 26.25464 | 34940 ft | 410 kts | 122° |
| 2026-04-26 07:11 | 35.02840 | 26.39777 | 34932 ft | 405 kts | 123° |
| 2026-04-26 07:11 | 34.99703 | 26.45458 | 34933 ft | 403 kts | 123° |
| 2026-04-26 07:12 | 34.96580 | 26.51113 | 34934 ft | 402 kts | 123° |
| 2026-04-26 07:12 | 34.93458 | 26.56765 | 34946 ft | 402 kts | 123° |
| 2026-04-26 07:13 | 34.90347 | 26.62436 | 34936 ft | 403 kts | 123° |
| 2026-04-26 07:13 | 34.87245 | 26.68135 | 34932 ft | 405 kts | 123° |
| 2026-04-26 07:14 | 34.84136 | 26.73871 | 34933 ft | 407 kts | 123° |
| 2026-04-26 07:14 | 34.81018 | 26.79636 | 34947 ft | 409 kts | 123° |
| 2026-04-26 07:15 | 34.77886 | 26.85429 | 34947 ft | 411 kts | 123° |
| 2026-04-26 07:15 | 34.74744 | 26.91255 | 34944 ft | 413 kts | 123° |
| 2026-04-26 07:16 | 34.71606 | 26.97121 | 34939 ft | 414 kts | 123° |
| 2026-04-26 07:16 | 34.68476 | 27.02985 | 34933 ft | 413 kts | 123° |
| 2026-04-26 07:17 | 34.65356 | 27.08833 | 34934 ft | 411 kts | 123° |
| 2026-04-26 07:17 | 34.62253 | 27.14647 | 34928 ft | 409 kts | 123° |
| 2026-04-26 07:18 | 34.59174 | 27.20441 | 34934 ft | 407 kts | 123° |
| 2026-04-26 07:18 | 34.56149 | 27.26214 | 34931 ft | 406 kts | 123° |
| 2026-04-26 07:19 | 34.53134 | 27.31990 | 34930 ft | 405 kts | 123° |
| 2026-04-26 07:19 | 34.50125 | 27.37757 | 34933 ft | 405 kts | 123° |
| 2026-04-26 07:20 | 34.47110 | 27.43539 | 34937 ft | 406 kts | 123° |
| 2026-04-26 07:20 | 34.44104 | 27.49311 | 34925 ft | 407 kts | 123° |
| 2026-04-26 07:21 | 34.41131 | 27.55164 | 34935 ft | 408 kts | 123° |
| 2026-04-26 07:21 | 34.38164 | 27.61051 | 34936 ft | 410 kts | 123° |
| 2026-04-26 07:22 | 34.35192 | 27.66958 | 34935 ft | 412 kts | 123° |
| 2026-04-26 07:22 | 34.32208 | 27.72889 | 34933 ft | 413 kts | 123° |
| 2026-04-26 07:23 | 34.29215 | 27.78833 | 34935 ft | 414 kts | 123° |
| 2026-04-26 07:23 | 34.26219 | 27.84780 | 34927 ft | 414 kts | 123° |
| 2026-04-26 07:24 | 34.23228 | 27.90716 | 34925 ft | 413 kts | 123° |
| 2026-04-26 07:24 | 34.20250 | 27.96627 | 34925 ft | 411 kts | 123° |
| 2026-04-26 07:25 | 34.17285 | 28.02510 | 34924 ft | 410 kts | 122° |
| 2026-04-26 07:25 | 34.14325 | 28.08383 | 34926 ft | 409 kts | 123° |
| 2026-04-26 07:26 | 34.11392 | 28.14260 | 34930 ft | 408 kts | 123° |
| 2026-04-26 07:26 | 34.08476 | 28.20142 | 34933 ft | 409 kts | 123° |
| 2026-04-26 07:27 | 34.05540 | 28.26070 | 34929 ft | 409 kts | 123° |
| 2026-04-26 07:27 | 34.02617 | 28.31970 | 34931 ft | 410 kts | 123° |
| 2026-04-26 07:28 | 33.99687 | 28.37883 | 34908 ft | 412 kts | 123° |
| 2026-04-26 07:28 | 33.96763 | 28.43824 | 34929 ft | 413 kts | 123° |
| 2026-04-26 07:29 | 33.93839 | 28.49795 | 34938 ft | 414 kts | 123° |
| 2026-04-26 07:29 | 33.90908 | 28.55788 | 34939 ft | 416 kts | 123° |
| 2026-04-26 07:30 | 33.87963 | 28.61807 | 34939 ft | 418 kts | 123° |
| 2026-04-26 07:30 | 33.85011 | 28.67842 | 34929 ft | 419 kts | 123° |
| 2026-04-26 07:31 | 33.82077 | 28.73892 | 34932 ft | 418 kts | 123° |
| 2026-04-26 07:31 | 33.79174 | 28.79912 | 34927 ft | 416 kts | 123° |
| 2026-04-26 07:32 | 33.76283 | 28.85917 | 34927 ft | 414 kts | 123° |
| 2026-04-26 07:32 | 33.73407 | 28.91893 | 34933 ft | 412 kts | 122° |
| 2026-04-26 07:33 | 33.70560 | 28.97813 | 34924 ft | 411 kts | 123° |
| 2026-04-26 07:33 | 33.67726 | 29.03767 | 34940 ft | 410 kts | 123° |
| 2026-04-26 07:34 | 33.64901 | 29.09732 | 34943 ft | 412 kts | 123° |